createdAt,value
2022-09-22T00:00:59.414Z,7.11
2022-09-22T00:03:27.933Z,7.13
2022-09-22T00:06:05.246Z,7.14
2022-09-22T00:08:35.218Z,7.02
2022-09-22T00:11:05.230Z,6.99
2022-09-22T00:13:33.731Z,7.09
2022-09-22T00:16:02.196Z,7.11
2022-09-22T00:18:31.135Z,7.11
2022-09-22T00:20:59.416Z,7.14
2022-09-22T00:23:29.140Z,7.16
2022-09-22T00:25:57.126Z,7.18
2022-09-22T00:28:25.896Z,7.19
2022-09-22T00:30:53.952Z,7.21
2022-09-22T00:33:22.038Z,6.59
2022-09-22T00:35:58.844Z,7.14
2022-09-22T00:38:28.469Z,7.04
2022-09-22T00:40:56.591Z,7.10
2022-09-22T00:43:26.222Z,7.00
2022-09-22T00:45:57.318Z,6.95
2022-09-22T00:48:26.087Z,6.94
2022-09-22T00:50:55.282Z,6.97
2022-09-22T00:53:25.078Z,6.99
2022-09-22T00:55:57.230Z,7.01
2022-09-22T00:58:30.864Z,7.04
2022-09-22T01:00:59.344Z,7.06
2022-09-22T01:03:30.157Z,7.06
2022-09-22T01:06:02.703Z,7.06
2022-09-22T01:08:31.414Z,7.04
2022-09-22T01:11:00.983Z,7.04
2022-09-22T01:13:32.753Z,7.03
2022-09-22T01:16:28.841Z,6.88
2022-09-22T01:19:12.433Z,6.93
2022-09-22T01:21:44.330Z,6.88
2022-09-22T01:24:49.011Z,6.81
2022-09-22T01:27:41.258Z,6.78
2022-09-22T01:30:18.267Z,6.74
2022-09-22T01:33:08.470Z,6.68
2022-09-22T01:35:43.948Z,6.64
2022-09-22T01:38:15.063Z,6.56
2022-09-22T01:40:48.539Z,6.53
2022-09-22T01:43:20.082Z,6.49
2022-09-22T01:45:49.723Z,6.42
2022-09-22T01:48:21.677Z,6.39
2022-09-22T01:50:53.251Z,6.27
2022-09-22T01:53:25.572Z,6.33
2022-09-22T01:55:59.720Z,6.29
2022-09-22T01:58:30.751Z,6.28
2022-09-22T02:01:02.642Z,6.21
2022-09-22T02:03:36.387Z,6.14
2022-09-22T02:06:07.004Z,6.22
2022-09-22T02:08:37.512Z,6.20
2022-09-22T02:11:10.780Z,6.25
2022-09-22T02:13:39.091Z,6.27
2022-09-22T02:16:09.090Z,6.30
2022-09-22T02:18:42.904Z,6.22
2022-09-22T02:21:11.519Z,6.20
2022-09-22T02:23:39.548Z,6.29
2022-09-22T02:26:08.328Z,6.32
2022-09-22T02:28:39.133Z,6.35
2022-09-22T02:31:25.098Z,6.36
2022-09-22T02:33:53.667Z,6.25
2022-09-22T02:36:40.278Z,6.42
2022-09-22T02:39:11.418Z,6.41
2022-09-22T02:41:47.559Z,6.46
2022-09-22T02:44:21.151Z,6.47
2022-09-22T02:46:54.882Z,6.51
2022-09-22T02:49:23.723Z,6.26
2022-09-22T02:51:51.782Z,6.55
2022-09-22T02:54:19.827Z,6.00
2022-09-22T02:56:47.853Z,6.56
2022-09-22T02:59:15.927Z,6.59
2022-09-22T03:01:44.099Z,6.65
2022-09-22T03:04:13.443Z,6.70
2022-09-22T03:06:41.471Z,6.72
2022-09-22T03:09:09.393Z,6.65
2022-09-22T03:11:37.406Z,6.75
2022-09-22T03:14:05.328Z,6.74
2022-09-22T03:16:33.353Z,6.60
2022-09-22T03:19:01.366Z,6.70
2022-09-22T03:21:30.759Z,6.68
2022-09-22T03:23:58.757Z,6.65
2022-09-22T03:26:26.752Z,6.61
2022-09-22T03:28:54.740Z,6.56
2022-09-22T03:31:22.812Z,6.54
2022-09-22T03:33:52.843Z,6.53
2022-09-22T03:36:21.096Z,6.55
2022-09-22T03:38:52.060Z,6.52
2022-09-22T03:41:20.165Z,6.55
2022-09-22T03:43:48.332Z,6.55
2022-09-22T03:46:16.568Z,6.45
2022-09-22T03:48:45.438Z,5.97
2022-09-22T03:51:13.794Z,6.07
2022-09-22T03:53:41.849Z,6.44
2022-09-22T03:56:12.618Z,6.38
2022-09-22T03:58:40.951Z,6.39
2022-09-22T04:01:11.443Z,6.39
2022-09-22T04:03:41.047Z,6.41
2022-09-22T04:06:09.586Z,6.42
2022-09-22T04:08:37.932Z,6.34
2022-09-22T04:11:06.901Z,6.24
2022-09-22T04:13:36.490Z,6.43
2022-09-22T04:16:05.387Z,6.25
2022-09-22T04:18:33.485Z,6.39
2022-09-22T04:21:01.533Z,6.31
2022-09-22T04:23:29.557Z,6.33
2022-09-22T04:25:57.656Z,6.31
2022-09-22T04:28:25.801Z,6.29
2022-09-22T04:30:55.566Z,5.69
2022-09-22T04:33:24.111Z,6.21
2022-09-22T04:35:52.578Z,6.19
2022-09-22T04:38:20.615Z,6.19
2022-09-22T04:40:49.660Z,6.20
2022-09-22T04:43:17.983Z,6.15
2022-09-22T04:45:47.261Z,6.25
2022-09-22T04:48:17.777Z,6.17
2022-09-22T04:50:48.061Z,6.17
2022-09-22T04:53:17.015Z,6.28
2022-09-22T04:55:45.120Z,6.36
2022-09-22T04:58:14.162Z,6.42
2022-09-22T05:00:42.464Z,6.45
2022-09-22T05:03:12.574Z,6.37
2022-09-22T05:05:42.753Z,6.55
2022-09-22T05:08:10.856Z,6.55
2022-09-22T05:10:38.846Z,6.57
2022-09-22T05:13:06.966Z,6.59
2022-09-22T05:15:35.140Z,6.60
2022-09-22T05:18:03.283Z,6.50
2022-09-22T05:20:31.296Z,6.50
2022-09-22T05:23:00.666Z,6.55
2022-09-22T05:25:28.814Z,6.55
2022-09-22T05:27:57.507Z,6.21
2022-09-22T05:30:27.367Z,6.76
2022-09-22T05:32:55.461Z,6.87
2022-09-22T05:35:25.492Z,6.96
2022-09-22T05:37:53.914Z,7.09
2022-09-22T05:40:26.337Z,7.21
2022-09-22T05:42:55.646Z,7.23
2022-09-22T05:45:23.809Z,7.22
2022-09-22T05:47:52.078Z,7.22
2022-09-22T05:50:20.870Z,7.24
2022-09-22T05:52:48.929Z,7.23
2022-09-22T05:55:17.053Z,7.29
2022-09-22T05:57:46.380Z,7.37
2022-09-22T06:00:14.825Z,7.43
2022-09-22T06:02:45.181Z,7.48
2022-09-22T06:05:17.378Z,7.53
2022-09-22T06:07:46.259Z,7.63
2022-09-22T06:10:14.210Z,7.77
2022-09-22T06:12:42.252Z,7.86
2022-09-22T06:15:12.015Z,7.42
2022-09-22T06:17:39.978Z,7.99
2022-09-22T06:20:09.171Z,8.17
2022-09-22T06:22:37.346Z,8.22
2022-09-22T06:25:09.169Z,8.17
2022-09-22T06:27:37.215Z,8.09
2022-09-22T06:30:06.125Z,8.24
2022-09-22T06:32:39.206Z,8.39
2022-09-22T06:35:07.831Z,8.59
2022-09-22T06:37:38.965Z,8.31
2022-09-22T06:40:08.697Z,7.11
2022-09-22T06:42:37.014Z,9.06
2022-09-22T06:45:05.525Z,9.21
2022-09-22T06:47:34.893Z,9.34
2022-09-22T06:50:05.581Z,9.50
2022-09-22T06:52:36.576Z,9.42
2022-09-22T06:55:06.597Z,9.49
2022-09-22T06:57:34.538Z,9.55
2022-09-22T07:00:03.793Z,9.14
2022-09-22T07:02:32.411Z,9.76
2022-09-22T07:05:06.172Z,9.81
2022-09-22T07:07:34.148Z,10.15
2022-09-22T07:10:03.324Z,10.37
2022-09-22T07:12:31.553Z,10.46
2022-09-22T07:14:59.534Z,10.54
2022-09-22T07:17:31.816Z,10.69
2022-09-22T07:19:59.833Z,10.39
2022-09-22T07:22:29.288Z,10.97
2022-09-22T07:24:57.241Z,11.06
2022-09-22T07:27:26.091Z,11.08
2022-09-22T07:29:55.074Z,11.10
2022-09-22T07:32:23.120Z,11.11
2022-09-22T07:34:52.775Z,10.81
2022-09-22T07:37:20.755Z,10.85
2022-09-22T07:39:50.114Z,10.71
2022-09-22T07:42:19.094Z,10.33
2022-09-22T07:45:04.366Z,10.70
2022-09-22T07:47:49.644Z,10.67
2022-09-22T07:50:18.466Z,10.61
2022-09-22T07:52:52.346Z,10.50
2022-09-22T07:55:25.373Z,10.61
2022-09-22T07:57:57.566Z,10.66
2022-09-22T08:00:26.603Z,10.69
2022-09-22T08:02:57.975Z,10.78
2022-09-22T08:05:28.362Z,10.82
2022-09-22T08:07:58.366Z,10.95
2022-09-22T08:10:28.209Z,11.02
2022-09-22T08:12:58.199Z,11.09
2022-09-22T08:15:27.534Z,11.09
2022-09-22T08:17:57.982Z,11.05
2022-09-22T08:20:29.133Z,11.09
2022-09-22T08:22:58.223Z,11.27
2022-09-22T08:25:27.631Z,11.33
2022-09-22T08:27:55.684Z,11.49
2022-09-22T08:30:23.867Z,11.23
2022-09-22T08:32:52.110Z,11.63
2022-09-22T08:35:20.517Z,11.62
2022-09-22T08:37:50.402Z,11.74
2022-09-22T08:40:21.146Z,11.85
2022-09-22T08:42:54.068Z,12.01
2022-09-22T08:45:29.383Z,12.12
2022-09-22T08:48:19.577Z,12.12
2022-09-22T08:51:09.617Z,12.63
2022-09-22T08:53:43.583Z,12.83
2022-09-22T08:56:30.525Z,13.00
2022-09-22T08:59:03.965Z,12.93
2022-09-22T09:01:56.854Z,13.25
2022-09-22T09:05:01.350Z,13.33
2022-09-22T09:07:34.710Z,13.30
2022-09-22T09:10:08.864Z,12.98
2022-09-22T09:12:48.919Z,12.52
2022-09-22T09:15:28.671Z,12.30
2022-09-22T09:17:59.119Z,12.29
2022-09-22T09:20:32.779Z,12.06
2022-09-22T09:23:01.056Z,12.15
2022-09-22T09:25:36.635Z,11.95
2022-09-22T09:28:07.195Z,12.02
2022-09-22T09:31:32.677Z,12.04
2022-09-22T09:34:03.918Z,12.01
2022-09-22T09:36:34.219Z,12.07
2022-09-22T09:39:12.126Z,12.00
2022-09-22T09:41:41.847Z,12.09
2022-09-22T09:44:20.444Z,12.37
2022-09-22T09:46:53.414Z,12.36
2022-09-22T09:49:24.204Z,12.25
2022-09-22T09:51:53.992Z,12.18
2022-09-22T09:54:22.758Z,12.23
2022-09-22T09:57:05.523Z,12.08
2022-09-22T09:59:51.254Z,12.10
2022-09-22T10:02:23.054Z,12.17
2022-09-22T10:04:54.450Z,12.19
2022-09-22T10:07:24.725Z,12.20
2022-09-22T10:09:53.495Z,12.13
2022-09-22T10:12:27.481Z,12.21
2022-09-22T10:14:57.164Z,12.26
2022-09-22T10:17:28.905Z,11.89
2022-09-22T10:20:20.367Z,12.31
2022-09-22T10:22:49.519Z,12.25
2022-09-22T10:25:24.108Z,12.34
2022-09-22T10:28:14.553Z,12.37
2022-09-22T10:30:45.321Z,12.66
2022-09-22T10:33:18.795Z,12.96
2022-09-22T10:35:55.403Z,13.03
2022-09-22T10:38:25.033Z,13.26
2022-09-22T10:40:57.946Z,13.43
2022-09-22T10:43:45.555Z,13.53
2022-09-22T10:46:21.917Z,13.59
2022-09-22T10:48:55.694Z,13.49
2022-09-22T10:51:34.285Z,13.73
2022-09-22T10:54:20.419Z,13.66
2022-09-22T10:56:51.851Z,13.69
2022-09-22T10:59:33.812Z,13.54
2022-09-22T11:02:22.320Z,13.19
2022-09-22T11:05:05.102Z,13.60
2022-09-22T11:08:07.848Z,13.55
2022-09-22T11:10:57.781Z,13.51
2022-09-22T11:13:37.313Z,13.45
2022-09-22T11:16:18.658Z,13.46
2022-09-22T11:18:57.318Z,13.70
2022-09-22T11:21:35.912Z,13.33
2022-09-22T11:24:18.982Z,13.85
2022-09-22T11:26:48.972Z,13.91
2022-09-22T11:29:49.626Z,13.82
2022-09-22T11:32:31.439Z,13.76
2022-09-22T11:35:13.555Z,13.35
2022-09-22T11:37:51.616Z,13.07
2022-09-22T11:40:36.575Z,12.58
2022-09-22T11:43:16.359Z,12.12
2022-09-22T11:45:48.390Z,11.67
2022-09-22T11:48:27.057Z,11.21
2022-09-22T11:51:05.871Z,11.67
2022-09-22T11:53:48.587Z,11.57
2022-09-22T11:56:27.880Z,11.15
2022-09-22T11:58:57.055Z,10.95
2022-09-22T12:01:28.381Z,10.91
2022-09-22T12:04:01.626Z,11.00
2022-09-22T12:06:35.452Z,11.20
2022-09-22T12:09:06.037Z,11.44
2022-09-22T12:11:36.889Z,11.83
2022-09-22T12:14:06.763Z,12.43
2022-09-22T12:16:41.994Z,12.91
2022-09-22T12:19:20.348Z,12.90
2022-09-22T12:21:53.997Z,13.13
2022-09-22T12:24:22.217Z,13.08
2022-09-22T12:26:52.176Z,13.18
2022-09-22T12:29:26.665Z,13.07
2022-09-22T12:31:56.727Z,13.27
2022-09-22T12:34:27.072Z,13.48
2022-09-22T12:36:59.436Z,13.53
2022-09-22T12:39:29.712Z,13.23
2022-09-22T12:42:00.432Z,13.30
2022-09-22T12:44:31.750Z,13.50
2022-09-22T12:47:02.481Z,13.58
2022-09-22T12:49:32.031Z,13.48
2022-09-22T12:52:03.484Z,13.56
2022-09-22T12:54:39.173Z,13.59
2022-09-22T12:57:32.008Z,13.68
2022-09-22T13:00:32.235Z,13.82
2022-09-22T13:03:01.923Z,13.83
2022-09-22T13:05:35.414Z,13.96
2022-09-22T13:08:05.179Z,14.38
2022-09-22T13:10:48.562Z,15.03
2022-09-22T13:13:38.733Z,15.17
2022-09-22T13:16:34.732Z,15.59
2022-09-22T13:19:04.008Z,16.09
2022-09-22T13:21:33.481Z,16.55
2022-09-22T13:24:03.949Z,16.42
2022-09-22T13:26:34.548Z,16.77
2022-09-22T13:29:07.986Z,16.69
2022-09-22T13:31:44.128Z,16.07
2022-09-22T13:34:25.301Z,15.09
2022-09-22T13:36:54.679Z,14.90
2022-09-22T13:39:24.048Z,14.31
2022-09-22T13:41:54.274Z,13.70
2022-09-22T13:44:27.571Z,13.31
2022-09-22T13:46:56.745Z,13.07
2022-09-22T13:49:31.006Z,12.75
2022-09-22T13:52:02.692Z,12.61
2022-09-22T13:54:34.663Z,12.18
2022-09-22T13:57:03.689Z,12.20
2022-09-22T13:59:38.650Z,12.20
2022-09-22T14:02:09.892Z,12.48
2022-09-22T14:04:39.633Z,12.36
2022-09-22T14:07:11.135Z,12.18
2022-09-22T14:09:40.304Z,12.16
2022-09-22T14:12:10.019Z,12.20
2022-09-22T14:14:40.485Z,12.15
2022-09-22T14:17:13.051Z,12.17
2022-09-22T14:19:44.166Z,12.26
2022-09-22T14:22:17.696Z,12.16
2022-09-22T14:24:49.311Z,12.47
2022-09-22T14:27:20.466Z,12.71
2022-09-22T14:29:51.881Z,13.28
2022-09-22T14:32:23.947Z,13.33
2022-09-22T14:34:54.319Z,13.19
2022-09-22T14:37:26.304Z,12.95
2022-09-22T14:39:55.413Z,12.87
2022-09-22T14:42:28.402Z,12.70
2022-09-22T14:45:18.500Z,12.55
2022-09-22T14:47:46.826Z,12.42
2022-09-22T14:50:20.595Z,12.30
2022-09-22T14:52:54.444Z,12.10
2022-09-22T14:55:30.415Z,12.16
2022-09-22T14:57:58.993Z,12.11
2022-09-22T15:00:46.239Z,11.97
2022-09-22T15:03:22.241Z,11.98
2022-09-22T15:05:51.811Z,11.95
2022-09-22T15:08:25.364Z,11.87
2022-09-22T15:10:56.250Z,11.87
2022-09-22T15:13:50.931Z,11.92
2022-09-22T15:16:43.492Z,11.91
2022-09-22T15:19:12.052Z,11.86
2022-09-22T15:21:47.442Z,13.06
2022-09-22T15:24:16.040Z,13.65
2022-09-22T15:26:44.294Z,14.16
2022-09-22T15:29:17.348Z,13.62
2022-09-22T15:31:47.185Z,13.27
2022-09-22T15:34:16.880Z,13.28
2022-09-22T15:36:46.935Z,13.10
2022-09-22T15:39:19.941Z,14.05
2022-09-22T15:41:48.865Z,15.60
2022-09-22T15:44:17.544Z,15.62
2022-09-22T15:46:51.333Z,15.21
2022-09-22T15:49:24.621Z,14.01
2022-09-22T15:51:53.092Z,13.70
2022-09-22T15:54:22.557Z,13.12
2022-09-22T15:56:53.268Z,12.58
2022-09-22T15:59:26.808Z,12.54
2022-09-22T16:01:57.181Z,12.10
2022-09-22T16:04:34.057Z,11.57
2022-09-22T16:07:08.580Z,11.71
2022-09-22T16:09:36.873Z,11.39
2022-09-22T16:12:08.688Z,11.22
2022-09-22T16:14:37.328Z,11.07
2022-09-22T16:17:07.678Z,10.96
2022-09-22T16:19:36.198Z,10.89
2022-09-22T16:22:05.948Z,10.79
2022-09-22T16:24:34.019Z,10.67
2022-09-22T16:27:04.193Z,10.61
2022-09-22T16:29:32.654Z,10.55
2022-09-22T16:32:01.187Z,10.55
2022-09-22T16:34:30.870Z,10.38
2022-09-22T16:36:58.877Z,10.14
2022-09-22T16:39:26.912Z,10.17
2022-09-22T16:41:54.986Z,9.99
2022-09-22T16:44:23.190Z,10.13
2022-09-22T16:46:51.179Z,10.13
2022-09-22T16:49:20.454Z,10.09
2022-09-22T16:51:50.703Z,9.81
2022-09-22T16:54:19.622Z,9.65
2022-09-22T16:56:49.121Z,9.58
2022-09-22T16:59:19.157Z,9.64
2022-09-22T17:01:48.023Z,9.58
2022-09-22T17:04:19.122Z,9.53
2022-09-22T17:06:49.128Z,9.42
2022-09-22T17:09:17.913Z,9.01
2022-09-22T17:11:48.784Z,9.06
2022-09-22T17:14:18.271Z,9.05
2022-09-22T17:16:48.159Z,9.04
2022-09-22T17:19:19.451Z,8.87
2022-09-22T17:21:51.017Z,8.92
2022-09-22T17:24:19.399Z,8.43
2022-09-22T17:26:48.938Z,8.26
2022-09-22T17:29:17.918Z,8.74
2022-09-22T17:31:47.329Z,8.64
2022-09-22T17:34:15.834Z,8.57
2022-09-22T17:36:44.143Z,8.53
2022-09-22T17:39:14.029Z,8.52
2022-09-22T17:41:45.520Z,8.49
2022-09-22T17:44:14.767Z,8.33
2022-09-22T17:47:02.855Z,8.32
2022-09-22T17:50:02.762Z,8.24
2022-09-22T17:52:47.977Z,8.08
2022-09-22T17:55:21.073Z,7.98
2022-09-22T17:57:50.567Z,7.42
2022-09-22T18:00:21.173Z,7.94
2022-09-22T18:02:50.870Z,7.89
2022-09-22T18:05:20.776Z,7.87
2022-09-22T18:07:53.557Z,7.77
2022-09-22T18:10:23.529Z,7.65
2022-09-22T18:12:51.785Z,7.64
2022-09-22T18:15:20.113Z,7.63
2022-09-22T18:17:48.127Z,7.60
2022-09-22T18:20:18.090Z,7.47
2022-09-22T18:22:48.396Z,7.45
2022-09-22T18:25:19.293Z,7.43
2022-09-22T18:27:49.474Z,7.47
2022-09-22T18:30:19.287Z,7.44
2022-09-22T18:32:48.154Z,7.38
2022-09-22T18:35:16.881Z,7.37
2022-09-22T18:37:45.342Z,7.21
2022-09-22T18:40:13.621Z,6.93
2022-09-22T18:42:44.808Z,7.13
2022-09-22T18:45:14.406Z,7.20
2022-09-22T18:47:43.743Z,6.90
2022-09-22T18:50:12.697Z,7.16
2022-09-22T18:52:44.101Z,7.13
2022-09-22T18:55:18.559Z,7.05
2022-09-22T18:57:48.127Z,7.00
2022-09-22T19:00:22.066Z,6.91
2022-09-22T19:02:50.517Z,6.86
2022-09-22T19:05:18.858Z,6.91
2022-09-22T19:07:48.414Z,6.90
2022-09-22T19:10:21.784Z,6.42
2022-09-22T19:12:50.247Z,6.82
2022-09-22T19:15:20.119Z,6.74
2022-09-22T19:17:49.682Z,6.75
2022-09-22T19:20:20.791Z,6.75
2022-09-22T19:22:49.413Z,6.63
2022-09-22T19:25:18.009Z,6.71
2022-09-22T19:27:46.287Z,6.69
2022-09-22T19:30:14.970Z,6.60
2022-09-22T19:32:46.089Z,6.47
2022-09-22T19:35:17.498Z,6.44
2022-09-22T19:37:45.678Z,6.55
2022-09-22T19:40:18.660Z,6.51
2022-09-22T19:42:47.360Z,6.54
2022-09-22T19:45:16.507Z,6.09
2022-09-22T19:47:46.104Z,6.56
2022-09-22T19:50:14.603Z,6.56
2022-09-22T19:52:42.810Z,6.57
2022-09-22T19:55:12.052Z,6.45
2022-09-22T19:57:41.766Z,6.46
2022-09-22T20:00:11.697Z,6.34
2022-09-22T20:02:40.486Z,5.96
2022-09-22T20:05:18.328Z,6.42
2022-09-22T20:07:46.753Z,6.31
2022-09-22T20:10:14.933Z,6.24
2022-09-22T20:12:42.954Z,5.60
2022-09-22T20:15:14.928Z,6.07
2022-09-22T20:17:46.055Z,5.35
2022-09-22T20:20:16.924Z,5.93
2022-09-22T20:22:45.954Z,6.06
2022-09-22T20:25:25.229Z,5.43
2022-09-22T20:27:53.359Z,5.98
2022-09-22T20:30:21.961Z,5.98
2022-09-22T20:32:50.461Z,5.92
2022-09-22T20:35:21.963Z,5.86
2022-09-22T20:37:51.619Z,5.89
2022-09-22T20:40:23.249Z,5.80
2022-09-22T20:42:53.202Z,5.80
2022-09-22T20:45:22.941Z,5.33
2022-09-22T20:47:51.033Z,5.86
2022-09-22T20:50:21.243Z,5.83
2022-09-22T20:52:49.614Z,5.89
2022-09-22T20:55:17.914Z,5.89
2022-09-22T20:57:45.987Z,5.46
2022-09-22T21:00:15.348Z,5.89
2022-09-22T21:02:43.606Z,5.28
2022-09-22T21:05:12.471Z,5.71
2022-09-22T21:07:41.900Z,5.62
2022-09-22T21:10:28.120Z,5.59
2022-09-22T21:12:56.397Z,5.53
2022-09-22T21:15:24.514Z,5.49
2022-09-22T21:17:52.957Z,4.83
2022-09-22T21:20:21.777Z,5.40
2022-09-22T21:22:52.698Z,5.28
2022-09-22T21:25:20.769Z,4.89
2022-09-22T21:27:48.825Z,5.26
2022-09-22T21:30:16.976Z,5.41
2022-09-22T21:32:45.053Z,5.41
2022-09-22T21:35:16.700Z,5.41
2022-09-22T21:37:45.166Z,5.40
2022-09-22T21:40:14.693Z,5.27
2022-09-22T21:42:42.824Z,5.22
2022-09-22T21:45:12.995Z,5.31
2022-09-22T21:47:41.038Z,5.30
2022-09-22T21:50:10.195Z,5.26
2022-09-22T21:52:38.649Z,5.23
2022-09-22T21:55:07.810Z,5.12
2022-09-22T21:57:37.170Z,5.18
2022-09-22T22:00:07.396Z,5.04
2022-09-22T22:02:55.393Z,5.04
2022-09-22T22:05:23.471Z,5.12
2022-09-22T22:07:51.633Z,5.07
2022-09-22T22:10:19.682Z,4.49
2022-09-22T22:12:49.105Z,4.91
2022-09-22T22:15:17.359Z,4.98
2022-09-22T22:17:45.444Z,4.96
2022-09-22T22:20:13.485Z,4.94
2022-09-22T22:22:41.520Z,4.91
2022-09-22T22:25:13.897Z,4.92
2022-09-22T22:27:45.641Z,4.83
2022-09-22T22:30:15.517Z,4.68
2022-09-22T22:32:43.639Z,4.78
2022-09-22T22:35:12.435Z,4.80
2022-09-22T22:37:40.390Z,4.64
2022-09-22T22:40:09.131Z,4.83
2022-09-22T22:42:37.180Z,4.75
2022-09-22T22:45:06.720Z,4.94
2022-09-22T22:47:36.037Z,4.98
2022-09-22T22:50:03.992Z,4.63
2022-09-22T22:52:31.949Z,5.01
2022-09-22T22:54:59.967Z,5.00
2022-09-22T22:57:28.917Z,5.02
2022-09-22T22:59:57.314Z,5.02
2022-09-22T23:02:25.757Z,5.05
2022-09-22T23:05:01.167Z,5.00
2022-09-22T23:07:29.301Z,4.99
2022-09-22T23:10:06.544Z,4.98
2022-09-22T23:12:35.222Z,4.90
2022-09-22T23:15:03.326Z,4.95
2022-09-22T23:17:32.075Z,4.95
2022-09-22T23:20:01.497Z,4.97
2022-09-22T23:22:30.683Z,4.95
2022-09-22T23:24:59.194Z,4.93
2022-09-22T23:27:28.407Z,4.93
2022-09-22T23:29:57.253Z,4.92
2022-09-22T23:32:25.638Z,4.92
2022-09-22T23:34:53.676Z,4.89
2022-09-22T23:37:24.994Z,4.88
2022-09-22T23:39:53.490Z,4.78
2022-09-22T23:42:21.844Z,4.77
2022-09-22T23:44:50.003Z,4.88
2022-09-22T23:47:18.060Z,4.86
2022-09-22T23:49:47.694Z,4.84
2022-09-22T23:52:15.681Z,4.80
2022-09-22T23:54:46.152Z,4.67
2022-09-22T23:57:14.155Z,4.79
2022-09-22T23:59:42.133Z,4.76
